sensor_id;sensor_type;location;lat;lon;timestamp;temperature;humidity
44170;DHT22;29836;52.286;9.576;2023-08-06T00:00:06;13.50;99.90
44170;DHT22;29836;52.286;9.576;2023-08-06T00:02:32;13.40;99.90
44170;DHT22;29836;52.286;9.576;2023-08-06T00:04:57;13.40;99.90
44170;DHT22;29836;52.286;9.576;2023-08-06T00:07:23;13.40;99.90
44170;DHT22;29836;52.286;9.576;2023-08-06T00:09:48;13.40;99.90
44170;DHT22;29836;52.286;9.576;2023-08-06T00:12:14;13.40;99.90
44170;DHT22;29836;52.286;9.576;2023-08-06T00:14:40;13.40;99.90
44170;DHT22;29836;52.286;9.576;2023-08-06T00:17:05;13.30;99.90
44170;DHT22;29836;52.286;9.576;2023-08-06T00:19:32;13.40;99.90
44170;DHT22;29836;52.286;9.576;2023-08-06T00:21:57;13.40;99.90
44170;DHT22;29836;52.286;9.576;2023-08-06T00:24:23;13.40;99.90
44170;DHT22;29836;52.286;9.576;2023-08-06T00:26:48;13.40;99.90
44170;DHT22;29836;52.286;9.576;2023-08-06T00:29:14;13.40;99.90
44170;DHT22;29836;52.286;9.576;2023-08-06T00:31:39;13.40;99.90
44170;DHT22;29836;52.286;9.576;2023-08-06T00:34:05;13.30;99.90
44170;DHT22;29836;52.286;9.576;2023-08-06T00:36:31;13.30;99.90
44170;DHT22;29836;52.286;9.576;2023-08-06T00:38:56;13.30;99.90
44170;DHT22;29836;52.286;9.576;2023-08-06T00:41:22;13.30;99.90
44170;DHT22;29836;52.286;9.576;2023-08-06T00:43:47;13.30;99.90
44170;DHT22;29836;52.286;9.576;2023-08-06T00:46:13;13.40;99.90
44170;DHT22;29836;52.286;9.576;2023-08-06T00:48:40;13.40;99.90
44170;DHT22;29836;52.286;9.576;2023-08-06T00:51:06;13.30;99.90
44170;DHT22;29836;52.286;9.576;2023-08-06T00:53:32;13.40;99.90
44170;DHT22;29836;52.286;9.576;2023-08-06T00:55:58;13.30;99.90
44170;DHT22;29836;52.286;9.576;2023-08-06T00:58:24;13.30;99.90
44170;DHT22;29836;52.286;9.576;2023-08-06T01:00:49;13.30;99.90
44170;DHT22;29836;52.286;9.576;2023-08-06T01:03:15;13.40;99.90
44170;DHT22;29836;52.286;9.576;2023-08-06T01:05:41;13.40;99.90
44170;DHT22;29836;52.286;9.576;2023-08-06T01:13:47;13.30;99.90
44170;DHT22;29836;52.286;9.576;2023-08-06T01:16:18;13.30;99.90
44170;DHT22;29836;52.286;9.576;2023-08-06T01:18:47;13.30;99.90
44170;DHT22;29836;52.286;9.576;2023-08-06T01:21:18;13.30;99.90
44170;DHT22;29836;52.286;9.576;2023-08-06T01:23:44;13.30;99.90
44170;DHT22;29836;52.286;9.576;2023-08-06T01:29:18;13.30;99.90
44170;DHT22;29836;52.286;9.576;2023-08-06T01:31:48;13.30;99.90
44170;DHT22;29836;52.286;9.576;2023-08-06T01:34:21;13.30;99.90
44170;DHT22;29836;52.286;9.576;2023-08-06T01:36:47;13.30;99.90
44170;DHT22;29836;52.286;9.576;2023-08-06T01:39:13;13.30;99.90
44170;DHT22;29836;52.286;9.576;2023-08-06T01:41:38;13.30;99.90
44170;DHT22;29836;52.286;9.576;2023-08-06T01:44:04;13.30;99.90
44170;DHT22;29836;52.286;9.576;2023-08-06T01:46:30;13.30;99.90
44170;DHT22;29836;52.286;9.576;2023-08-06T01:48:55;13.30;99.90
44170;DHT22;29836;52.286;9.576;2023-08-06T01:51:21;13.30;99.90
44170;DHT22;29836;52.286;9.576;2023-08-06T01:53:46;13.20;99.90
44170;DHT22;29836;52.286;9.576;2023-08-06T01:56:12;13.20;99.90
44170;DHT22;29836;52.286;9.576;2023-08-06T01:58:37;13.20;99.90
44170;DHT22;29836;52.286;9.576;2023-08-06T02:01:03;13.20;99.90
44170;DHT22;29836;52.286;9.576;2023-08-06T02:03:28;13.10;99.90
44170;DHT22;29836;52.286;9.576;2023-08-06T02:05:54;13.10;99.90
44170;DHT22;29836;52.286;9.576;2023-08-06T02:08:20;13.10;99.90
44170;DHT22;29836;52.286;9.576;2023-08-06T02:10:45;13.10;99.90
44170;DHT22;29836;52.286;9.576;2023-08-06T02:13:11;13.10;99.90
44170;DHT22;29836;52.286;9.576;2023-08-06T02:15:42;13.10;99.90
44170;DHT22;29836;52.286;9.576;2023-08-06T02:18:08;13.10;99.90
44170;DHT22;29836;52.286;9.576;2023-08-06T02:20:34;13.00;99.90
44170;DHT22;29836;52.286;9.576;2023-08-06T02:22:59;13.00;99.90
44170;DHT22;29836;52.286;9.576;2023-08-06T02:25:25;13.00;99.90
44170;DHT22;29836;52.286;9.576;2023-08-06T02:30:19;13.00;99.90
44170;DHT22;29836;52.286;9.576;2023-08-06T02:32:45;13.00;99.90
44170;DHT22;29836;52.286;9.576;2023-08-06T02:35:10;13.00;99.90
44170;DHT22;29836;52.286;9.576;2023-08-06T02:37:36;13.00;99.90
44170;DHT22;29836;52.286;9.576;2023-08-06T02:40:01;13.00;99.90
44170;DHT22;29836;52.286;9.576;2023-08-06T02:42:27;13.00;99.90
44170;DHT22;29836;52.286;9.576;2023-08-06T02:44:53;12.90;99.90
44170;DHT22;29836;52.286;9.576;2023-08-06T02:47:21;12.90;99.90
44170;DHT22;29836;52.286;9.576;2023-08-06T02:49:47;12.90;99.90
44170;DHT22;29836;52.286;9.576;2023-08-06T02:52:12;13.00;99.90
44170;DHT22;29836;52.286;9.576;2023-08-06T02:54:38;12.90;99.90
44170;DHT22;29836;52.286;9.576;2023-08-06T02:57:04;12.90;99.90
44170;DHT22;29836;52.286;9.576;2023-08-06T02:59:31;12.90;99.90
44170;DHT22;29836;52.286;9.576;2023-08-06T03:01:56;12.90;99.90
44170;DHT22;29836;52.286;9.576;2023-08-06T03:04:22;12.90;99.90
44170;DHT22;29836;52.286;9.576;2023-08-06T03:06:49;12.90;99.90
44170;DHT22;29836;52.286;9.576;2023-08-06T03:09:15;12.90;99.90
44170;DHT22;29836;52.286;9.576;2023-08-06T03:11:41;12.90;99.90
44170;DHT22;29836;52.286;9.576;2023-08-06T03:14:06;12.90;99.90
44170;DHT22;29836;52.286;9.576;2023-08-06T03:16:32;12.90;99.90
44170;DHT22;29836;52.286;9.576;2023-08-06T03:18:57;13.00;99.90
44170;DHT22;29836;52.286;9.576;2023-08-06T03:21:23;13.00;99.90
44170;DHT22;29836;52.286;9.576;2023-08-06T03:23:48;13.00;99.90
44170;DHT22;29836;52.286;9.576;2023-08-06T03:26:14;13.00;99.90
44170;DHT22;29836;52.286;9.576;2023-08-06T03:28:39;13.00;99.90
44170;DHT22;29836;52.286;9.576;2023-08-06T03:31:05;13.10;99.90
44170;DHT22;29836;52.286;9.576;2023-08-06T03:33:31;13.20;99.90
44170;DHT22;29836;52.286;9.576;2023-08-06T03:35:56;13.10;99.90
44170;DHT22;29836;52.286;9.576;2023-08-06T03:38:22;13.10;99.90
44170;DHT22;29836;52.286;9.576;2023-08-06T03:40:48;13.10;99.90
44170;DHT22;29836;52.286;9.576;2023-08-06T03:43:14;13.10;99.90
44170;DHT22;29836;52.286;9.576;2023-08-06T03:45:40;13.10;99.90
44170;DHT22;29836;52.286;9.576;2023-08-06T03:48:06;13.10;99.90
44170;DHT22;29836;52.286;9.576;2023-08-06T03:50:31;13.10;99.90
44170;DHT22;29836;52.286;9.576;2023-08-06T03:52:56;13.10;99.90
44170;DHT22;29836;52.286;9.576;2023-08-06T03:55:22;13.10;99.90
44170;DHT22;29836;52.286;9.576;2023-08-06T03:57:47;13.10;99.90
44170;DHT22;29836;52.286;9.576;2023-08-06T04:00:13;13.10;99.90
44170;DHT22;29836;52.286;9.576;2023-08-06T04:02:39;13.10;99.90
44170;DHT22;29836;52.286;9.576;2023-08-06T04:05:05;13.10;99.90
44170;DHT22;29836;52.286;9.576;2023-08-06T04:07:30;13.10;99.90
44170;DHT22;29836;52.286;9.576;2023-08-06T04:10:00;13.10;99.90
44170;DHT22;29836;52.286;9.576;2023-08-06T04:12:26;13.10;99.90
44170;DHT22;29836;52.286;9.576;2023-08-06T04:14:52;13.00;99.90
44170;DHT22;29836;52.286;9.576;2023-08-06T04:17:19;13.00;99.90
44170;DHT22;29836;52.286;9.576;2023-08-06T04:19:53;12.90;99.90
44170;DHT22;29836;52.286;9.576;2023-08-06T04:22:20;12.90;99.90
44170;DHT22;29836;52.286;9.576;2023-08-06T04:24:45;12.90;99.90
44170;DHT22;29836;52.286;9.576;2023-08-06T04:27:12;12.90;99.90
44170;DHT22;29836;52.286;9.576;2023-08-06T04:29:38;12.80;99.90
44170;DHT22;29836;52.286;9.576;2023-08-06T04:32:06;12.80;99.90
44170;DHT22;29836;52.286;9.576;2023-08-06T04:34:32;12.70;99.90
44170;DHT22;29836;52.286;9.576;2023-08-06T04:36:59;12.70;99.90
44170;DHT22;29836;52.286;9.576;2023-08-06T04:39:24;12.70;99.90
44170;DHT22;29836;52.286;9.576;2023-08-06T04:41:50;12.70;99.90
44170;DHT22;29836;52.286;9.576;2023-08-06T04:44:15;12.70;99.90
44170;DHT22;29836;52.286;9.576;2023-08-06T04:46:41;12.70;99.90
44170;DHT22;29836;52.286;9.576;2023-08-06T04:49:06;12.70;99.90
44170;DHT22;29836;52.286;9.576;2023-08-06T04:51:32;12.80;99.90
44170;DHT22;29836;52.286;9.576;2023-08-06T04:53:58;12.70;99.90
44170;DHT22;29836;52.286;9.576;2023-08-06T04:56:23;12.70;99.90
44170;DHT22;29836;52.286;9.576;2023-08-06T04:58:49;12.70;99.90
44170;DHT22;29836;52.286;9.576;2023-08-06T05:01:15;12.70;99.90
44170;DHT22;29836;52.286;9.576;2023-08-06T05:03:40;12.70;99.90
44170;DHT22;29836;52.286;9.576;2023-08-06T05:06:06;12.80;99.90
44170;DHT22;29836;52.286;9.576;2023-08-06T05:08:31;12.80;99.90
44170;DHT22;29836;52.286;9.576;2023-08-06T05:10:57;12.80;99.90
44170;DHT22;29836;52.286;9.576;2023-08-06T05:13:22;12.80;99.90
44170;DHT22;29836;52.286;9.576;2023-08-06T05:15:48;12.80;99.90
44170;DHT22;29836;52.286;9.576;2023-08-06T05:18:13;12.90;99.90
44170;DHT22;29836;52.286;9.576;2023-08-06T05:20:41;12.90;99.90
44170;DHT22;29836;52.286;9.576;2023-08-06T05:23:07;13.00;99.90
44170;DHT22;29836;52.286;9.576;2023-08-06T05:25:34;13.00;99.90
44170;DHT22;29836;52.286;9.576;2023-08-06T05:28:01;13.10;99.90
44170;DHT22;29836;52.286;9.576;2023-08-06T05:30:27;13.10;99.90
44170;DHT22;29836;52.286;9.576;2023-08-06T05:32:52;13.10;99.90
44170;DHT22;29836;52.286;9.576;2023-08-06T05:35:18;13.20;99.90
44170;DHT22;29836;52.286;9.576;2023-08-06T05:37:43;13.20;99.90
44170;DHT22;29836;52.286;9.576;2023-08-06T05:40:09;13.30;99.90
44170;DHT22;29836;52.286;9.576;2023-08-06T05:42:34;13.30;99.90
44170;DHT22;29836;52.286;9.576;2023-08-06T05:45:00;13.40;99.90
44170;DHT22;29836;52.286;9.576;2023-08-06T05:47:25;13.50;99.90
44170;DHT22;29836;52.286;9.576;2023-08-06T05:49:51;13.60;99.90
44170;DHT22;29836;52.286;9.576;2023-08-06T05:52:16;13.70;99.90
44170;DHT22;29836;52.286;9.576;2023-08-06T05:54:42;13.80;99.90
44170;DHT22;29836;52.286;9.576;2023-08-06T05:57:07;13.90;99.90
44170;DHT22;29836;52.286;9.576;2023-08-06T05:59:33;14.00;99.90
44170;DHT22;29836;52.286;9.576;2023-08-06T06:01:58;14.00;99.90
44170;DHT22;29836;52.286;9.576;2023-08-06T06:04:25;14.10;99.90
44170;DHT22;29836;52.286;9.576;2023-08-06T06:06:50;14.20;99.90
44170;DHT22;29836;52.286;9.576;2023-08-06T06:09:16;14.40;99.90
44170;DHT22;29836;52.286;9.576;2023-08-06T06:11:41;14.80;99.90
44170;DHT22;29836;52.286;9.576;2023-08-06T06:14:07;15.10;99.90
44170;DHT22;29836;52.286;9.576;2023-08-06T06:16:33;15.10;99.90
44170;DHT22;29836;52.286;9.576;2023-08-06T06:18:59;15.00;99.90
44170;DHT22;29836;52.286;9.576;2023-08-06T06:21:24;14.90;99.90
44170;DHT22;29836;52.286;9.576;2023-08-06T06:23:50;14.80;99.90
44170;DHT22;29836;52.286;9.576;2023-08-06T06:26:17;14.80;99.90
44170;DHT22;29836;52.286;9.576;2023-08-06T06:28:43;14.80;99.90
44170;DHT22;29836;52.286;9.576;2023-08-06T06:31:08;14.80;99.90
44170;DHT22;29836;52.286;9.576;2023-08-06T06:33:34;14.90;99.90
44170;DHT22;29836;52.286;9.576;2023-08-06T06:36:00;14.90;99.90
44170;DHT22;29836;52.286;9.576;2023-08-06T06:38:25;14.90;99.90
44170;DHT22;29836;52.286;9.576;2023-08-06T06:40:55;15.00;99.90
44170;DHT22;29836;52.286;9.576;2023-08-06T06:43:21;15.10;99.90
44170;DHT22;29836;52.286;9.576;2023-08-06T06:45:46;15.20;99.90
44170;DHT22;29836;52.286;9.576;2023-08-06T06:48:12;15.30;99.90
44170;DHT22;29836;52.286;9.576;2023-08-06T06:50:37;15.20;99.90
44170;DHT22;29836;52.286;9.576;2023-08-06T06:53:04;15.40;99.90
44170;DHT22;29836;52.286;9.576;2023-08-06T06:55:30;15.40;99.90
44170;DHT22;29836;52.286;9.576;2023-08-06T06:57:55;15.50;99.90
44170;DHT22;29836;52.286;9.576;2023-08-06T07:00:21;15.60;99.90
44170;DHT22;29836;52.286;9.576;2023-08-06T07:02:46;15.70;99.90
44170;DHT22;29836;52.286;9.576;2023-08-06T07:05:12;15.80;99.90
44170;DHT22;29836;52.286;9.576;2023-08-06T07:07:37;15.90;99.90
44170;DHT22;29836;52.286;9.576;2023-08-06T07:10:03;15.90;99.90
44170;DHT22;29836;52.286;9.576;2023-08-06T07:12:29;15.90;99.90
44170;DHT22;29836;52.286;9.576;2023-08-06T07:14:54;16.00;99.90
44170;DHT22;29836;52.286;9.576;2023-08-06T07:17:20;16.00;99.90
44170;DHT22;29836;52.286;9.576;2023-08-06T07:19:46;16.10;99.90
44170;DHT22;29836;52.286;9.576;2023-08-06T07:22:11;16.20;99.90
44170;DHT22;29836;52.286;9.576;2023-08-06T07:24:37;16.20;99.90
44170;DHT22;29836;52.286;9.576;2023-08-06T07:27:02;16.30;99.90
44170;DHT22;29836;52.286;9.576;2023-08-06T07:29:28;16.40;99.90
44170;DHT22;29836;52.286;9.576;2023-08-06T07:31:53;16.50;99.90
44170;DHT22;29836;52.286;9.576;2023-08-06T07:34:20;16.60;99.90
44170;DHT22;29836;52.286;9.576;2023-08-06T07:36:46;16.70;99.90
44170;DHT22;29836;52.286;9.576;2023-08-06T07:39:12;16.70;99.90
44170;DHT22;29836;52.286;9.576;2023-08-06T07:41:37;16.70;99.90
44170;DHT22;29836;52.286;9.576;2023-08-06T07:44:04;16.70;99.90
44170;DHT22;29836;52.286;9.576;2023-08-06T07:46:29;16.80;99.90
44170;DHT22;29836;52.286;9.576;2023-08-06T07:48:55;16.90;99.90
44170;DHT22;29836;52.286;9.576;2023-08-06T07:51:20;17.00;99.90
44170;DHT22;29836;52.286;9.576;2023-08-06T07:53:46;17.20;99.90
44170;DHT22;29836;52.286;9.576;2023-08-06T07:56:11;17.20;99.90
44170;DHT22;29836;52.286;9.576;2023-08-06T07:58:37;17.40;99.90
44170;DHT22;29836;52.286;9.576;2023-08-06T08:01:02;17.50;99.90
44170;DHT22;29836;52.286;9.576;2023-08-06T08:03:28;17.60;99.90
44170;DHT22;29836;52.286;9.576;2023-08-06T08:05:55;17.60;99.90
44170;DHT22;29836;52.286;9.576;2023-08-06T08:08:23;17.70;99.90
44170;DHT22;29836;52.286;9.576;2023-08-06T08:10:49;17.90;99.90
44170;DHT22;29836;52.286;9.576;2023-08-06T08:13:14;17.90;99.90
44170;DHT22;29836;52.286;9.576;2023-08-06T08:15:40;18.10;99.90
44170;DHT22;29836;52.286;9.576;2023-08-06T08:18:05;18.00;99.90
44170;DHT22;29836;52.286;9.576;2023-08-06T08:20:31;17.80;99.90
44170;DHT22;29836;52.286;9.576;2023-08-06T08:22:59;17.70;99.90
44170;DHT22;29836;52.286;9.576;2023-08-06T08:25:25;17.80;99.90
44170;DHT22;29836;52.286;9.576;2023-08-06T08:27:51;17.90;99.90
44170;DHT22;29836;52.286;9.576;2023-08-06T08:30:16;18.00;99.90
44170;DHT22;29836;52.286;9.576;2023-08-06T08:32:42;18.00;99.90
44170;DHT22;29836;52.286;9.576;2023-08-06T08:35:07;18.10;99.90
44170;DHT22;29836;52.286;9.576;2023-08-06T08:37:33;18.20;99.90
44170;DHT22;29836;52.286;9.576;2023-08-06T08:39:59;18.30;99.90
44170;DHT22;29836;52.286;9.576;2023-08-06T08:42:26;18.30;99.90
44170;DHT22;29836;52.286;9.576;2023-08-06T08:44:52;18.30;99.90
44170;DHT22;29836;52.286;9.576;2023-08-06T08:47:19;18.30;99.90
44170;DHT22;29836;52.286;9.576;2023-08-06T08:49:44;18.30;99.90
44170;DHT22;29836;52.286;9.576;2023-08-06T08:52:11;18.50;99.90
44170;DHT22;29836;52.286;9.576;2023-08-06T08:54:39;18.70;99.90
44170;DHT22;29836;52.286;9.576;2023-08-06T08:57:05;19.10;99.90
44170;DHT22;29836;52.286;9.576;2023-08-06T08:59:33;19.50;99.90
44170;DHT22;29836;52.286;9.576;2023-08-06T09:02:01;20.00;99.90
44170;DHT22;29836;52.286;9.576;2023-08-06T09:04:28;20.80;99.90
44170;DHT22;29836;52.286;9.576;2023-08-06T09:06:56;20.90;99.90
44170;DHT22;29836;52.286;9.576;2023-08-06T09:09:28;20.80;99.90
44170;DHT22;29836;52.286;9.576;2023-08-06T09:12:00;20.70;99.90
44170;DHT22;29836;52.286;9.576;2023-08-06T09:14:26;21.10;99.90
44170;DHT22;29836;52.286;9.576;2023-08-06T09:16:52;22.30;99.90
44170;DHT22;29836;52.286;9.576;2023-08-06T09:19:17;22.90;99.90
44170;DHT22;29836;52.286;9.576;2023-08-06T09:21:44;23.00;99.90
44170;DHT22;29836;52.286;9.576;2023-08-06T09:24:12;23.40;99.90
44170;DHT22;29836;52.286;9.576;2023-08-06T09:26:38;24.00;99.90
44170;DHT22;29836;52.286;9.576;2023-08-06T09:29:06;24.10;99.90
44170;DHT22;29836;52.286;9.576;2023-08-06T09:31:33;24.80;99.90
44170;DHT22;29836;52.286;9.576;2023-08-06T09:34:00;25.60;99.90
44170;DHT22;29836;52.286;9.576;2023-08-06T09:36:27;26.30;99.90
44170;DHT22;29836;52.286;9.576;2023-08-06T09:38:52;26.70;99.90
44170;DHT22;29836;52.286;9.576;2023-08-06T09:41:27;26.50;99.70
44170;DHT22;29836;52.286;9.576;2023-08-06T09:43:54;26.80;99.20
44170;DHT22;29836;52.286;9.576;2023-08-06T09:46:19;26.70;99.00
44170;DHT22;29836;52.286;9.576;2023-08-06T09:48:46;27.00;98.60
44170;DHT22;29836;52.286;9.576;2023-08-06T09:51:13;27.60;94.90
44170;DHT22;29836;52.286;9.576;2023-08-06T09:53:40;26.80;98.50
44170;DHT22;29836;52.286;9.576;2023-08-06T09:56:06;27.50;95.70
44170;DHT22;29836;52.286;9.576;2023-08-06T09:58:32;27.10;96.10
44170;DHT22;29836;52.286;9.576;2023-08-06T10:00:59;26.40;97.40
44170;DHT22;29836;52.286;9.576;2023-08-06T10:03:25;26.80;93.40
44170;DHT22;29836;52.286;9.576;2023-08-06T10:05:53;27.20;89.60
44170;DHT22;29836;52.286;9.576;2023-08-06T10:08:20;26.80;90.60
44170;DHT22;29836;52.286;9.576;2023-08-06T10:10:46;27.00;94.70
44170;DHT22;29836;52.286;9.576;2023-08-06T10:13:12;26.40;86.60
44170;DHT22;29836;52.286;9.576;2023-08-06T10:15:39;26.20;91.00
44170;DHT22;29836;52.286;9.576;2023-08-06T10:18:05;26.40;93.40
44170;DHT22;29836;52.286;9.576;2023-08-06T10:20:35;26.60;93.90
44170;DHT22;29836;52.286;9.576;2023-08-06T10:23:05;26.40;93.30
44170;DHT22;29836;52.286;9.576;2023-08-06T10:25:34;26.00;92.30
44170;DHT22;29836;52.286;9.576;2023-08-06T10:28:00;27.00;95.40
44170;DHT22;29836;52.286;9.576;2023-08-06T10:30:33;26.50;91.60
44170;DHT22;29836;52.286;9.576;2023-08-06T10:33:01;26.20;93.90
44170;DHT22;29836;52.286;9.576;2023-08-06T10:38:12;26.50;97.50
44170;DHT22;29836;52.286;9.576;2023-08-06T10:43:32;26.70;90.80
44170;DHT22;29836;52.286;9.576;2023-08-06T10:45:59;26.10;92.10
44170;DHT22;29836;52.286;9.576;2023-08-06T10:50:53;24.50;93.80
44170;DHT22;29836;52.286;9.576;2023-08-06T10:53:21;23.90;95.00
44170;DHT22;29836;52.286;9.576;2023-08-06T10:55:46;23.30;98.20
44170;DHT22;29836;52.286;9.576;2023-08-06T10:58:15;22.60;99.30
44170;DHT22;29836;52.286;9.576;2023-08-06T11:00:42;22.20;99.90
44170;DHT22;29836;52.286;9.576;2023-08-06T11:03:08;21.90;99.90
44170;DHT22;29836;52.286;9.576;2023-08-06T11:05:34;21.90;99.90
44170;DHT22;29836;52.286;9.576;2023-08-06T11:08:00;22.00;99.90
44170;DHT22;29836;52.286;9.576;2023-08-06T11:10:26;22.40;99.90
44170;DHT22;29836;52.286;9.576;2023-08-06T11:12:51;22.50;99.90
44170;DHT22;29836;52.286;9.576;2023-08-06T11:15:20;22.30;98.40
44170;DHT22;29836;52.286;9.576;2023-08-06T11:17:45;21.90;98.20
44170;DHT22;29836;52.286;9.576;2023-08-06T11:20:11;21.60;98.60
44170;DHT22;29836;52.286;9.576;2023-08-06T11:22:37;21.40;99.30
44170;DHT22;29836;52.286;9.576;2023-08-06T11:25:05;21.20;99.90
44170;DHT22;29836;52.286;9.576;2023-08-06T11:27:31;21.10;99.90
44170;DHT22;29836;52.286;9.576;2023-08-06T11:29:56;20.90;99.90
44170;DHT22;29836;52.286;9.576;2023-08-06T11:32:22;20.70;99.90
44170;DHT22;29836;52.286;9.576;2023-08-06T11:34:47;20.70;99.90
44170;DHT22;29836;52.286;9.576;2023-08-06T11:37:13;20.60;99.90
44170;DHT22;29836;52.286;9.576;2023-08-06T11:39:39;20.60;99.90
44170;DHT22;29836;52.286;9.576;2023-08-06T11:42:12;20.40;99.90
44170;DHT22;29836;52.286;9.576;2023-08-06T11:44:37;20.20;99.90
44170;DHT22;29836;52.286;9.576;2023-08-06T11:47:05;20.00;99.90
44170;DHT22;29836;52.286;9.576;2023-08-06T11:49:42;19.80;99.90
44170;DHT22;29836;52.286;9.576;2023-08-06T11:54:40;19.60;99.90
44170;DHT22;29836;52.286;9.576;2023-08-06T11:57:06;19.50;99.90
44170;DHT22;29836;52.286;9.576;2023-08-06T11:59:32;19.60;99.90
44170;DHT22;29836;52.286;9.576;2023-08-06T12:01:59;20.10;99.90
44170;DHT22;29836;52.286;9.576;2023-08-06T12:04:25;20.60;99.90
44170;DHT22;29836;52.286;9.576;2023-08-06T12:06:50;20.90;99.90
44170;DHT22;29836;52.286;9.576;2023-08-06T12:09:17;20.90;99.90
44170;DHT22;29836;52.286;9.576;2023-08-06T12:11:42;20.80;99.90
44170;DHT22;29836;52.286;9.576;2023-08-06T12:14:08;20.70;99.90
44170;DHT22;29836;52.286;9.576;2023-08-06T12:16:33;20.60;99.90
44170;DHT22;29836;52.286;9.576;2023-08-06T12:18:59;20.50;99.90
44170;DHT22;29836;52.286;9.576;2023-08-06T12:21:24;20.50;99.90
44170;DHT22;29836;52.286;9.576;2023-08-06T12:23:50;20.40;99.90
44170;DHT22;29836;52.286;9.576;2023-08-06T12:26:15;20.30;99.90
44170;DHT22;29836;52.286;9.576;2023-08-06T12:28:41;20.30;99.90
44170;DHT22;29836;52.286;9.576;2023-08-06T12:31:06;20.20;99.90
44170;DHT22;29836;52.286;9.576;2023-08-06T12:33:32;20.40;99.90
44170;DHT22;29836;52.286;9.576;2023-08-06T12:35:57;20.30;99.90
44170;DHT22;29836;52.286;9.576;2023-08-06T12:38:23;20.40;99.90
44170;DHT22;29836;52.286;9.576;2023-08-06T12:40:49;20.40;99.90
44170;DHT22;29836;52.286;9.576;2023-08-06T12:43:14;20.40;99.90
44170;DHT22;29836;52.286;9.576;2023-08-06T12:45:40;20.40;99.90
44170;DHT22;29836;52.286;9.576;2023-08-06T12:48:06;20.30;99.90
44170;DHT22;29836;52.286;9.576;2023-08-06T12:50:31;20.20;99.90
44170;DHT22;29836;52.286;9.576;2023-08-06T12:52:58;20.10;99.90
44170;DHT22;29836;52.286;9.576;2023-08-06T12:55:23;20.00;99.90
44170;DHT22;29836;52.286;9.576;2023-08-06T12:57:49;19.90;99.90
44170;DHT22;29836;52.286;9.576;2023-08-06T13:00:14;19.80;99.90
44170;DHT22;29836;52.286;9.576;2023-08-06T13:02:40;19.60;99.90
44170;DHT22;29836;52.286;9.576;2023-08-06T13:05:05;19.50;99.90
44170;DHT22;29836;52.286;9.576;2023-08-06T13:07:32;19.50;99.90
44170;DHT22;29836;52.286;9.576;2023-08-06T13:09:57;19.60;99.90
44170;DHT22;29836;52.286;9.576;2023-08-06T13:12:23;19.70;99.90
44170;DHT22;29836;52.286;9.576;2023-08-06T13:14:49;19.60;99.90
44170;DHT22;29836;52.286;9.576;2023-08-06T13:17:14;19.60;99.90
44170;DHT22;29836;52.286;9.576;2023-08-06T13:19:40;19.50;99.90
44170;DHT22;29836;52.286;9.576;2023-08-06T13:22:05;19.50;99.90
44170;DHT22;29836;52.286;9.576;2023-08-06T13:24:34;19.60;99.90
44170;DHT22;29836;52.286;9.576;2023-08-06T13:27:00;19.70;99.90
44170;DHT22;29836;52.286;9.576;2023-08-06T13:29:26;19.70;99.90
44170;DHT22;29836;52.286;9.576;2023-08-06T13:31:52;19.70;99.90
44170;DHT22;29836;52.286;9.576;2023-08-06T13:34:18;19.70;99.90
44170;DHT22;29836;52.286;9.576;2023-08-06T13:36:44;19.80;99.90
44170;DHT22;29836;52.286;9.576;2023-08-06T13:39:09;19.90;99.90
44170;DHT22;29836;52.286;9.576;2023-08-06T13:41:36;20.00;99.90
44170;DHT22;29836;52.286;9.576;2023-08-06T13:44:02;19.90;99.90
44170;DHT22;29836;52.286;9.576;2023-08-06T13:46:28;19.90;99.90
44170;DHT22;29836;52.286;9.576;2023-08-06T13:48:53;19.90;99.90
44170;DHT22;29836;52.286;9.576;2023-08-06T13:51:19;19.90;99.90
44170;DHT22;29836;52.286;9.576;2023-08-06T13:53:45;19.90;99.90
44170;DHT22;29836;52.286;9.576;2023-08-06T13:56:10;20.20;99.90
44170;DHT22;29836;52.286;9.576;2023-08-06T13:58:36;20.20;99.90
44170;DHT22;29836;52.286;9.576;2023-08-06T14:01:02;20.30;99.90
44170;DHT22;29836;52.286;9.576;2023-08-06T14:03:28;20.40;99.90
44170;DHT22;29836;52.286;9.576;2023-08-06T14:05:53;20.50;99.90
44170;DHT22;29836;52.286;9.576;2023-08-06T14:08:24;20.50;99.90
44170;DHT22;29836;52.286;9.576;2023-08-06T14:10:51;20.30;99.90
44170;DHT22;29836;52.286;9.576;2023-08-06T14:13:17;20.20;99.90
44170;DHT22;29836;52.286;9.576;2023-08-06T14:15:43;20.20;99.90
44170;DHT22;29836;52.286;9.576;2023-08-06T14:18:12;20.00;99.90
44170;DHT22;29836;52.286;9.576;2023-08-06T14:20:38;19.90;99.90
44170;DHT22;29836;52.286;9.576;2023-08-06T14:23:03;19.80;99.90
44170;DHT22;29836;52.286;9.576;2023-08-06T14:25:29;19.60;99.90
44170;DHT22;29836;52.286;9.576;2023-08-06T14:27:54;19.50;99.90
44170;DHT22;29836;52.286;9.576;2023-08-06T14:30:20;19.30;99.90
44170;DHT22;29836;52.286;9.576;2023-08-06T14:32:45;19.00;99.90
44170;DHT22;29836;52.286;9.576;2023-08-06T14:35:11;18.80;99.90
44170;DHT22;29836;52.286;9.576;2023-08-06T14:37:36;18.70;99.90
44170;DHT22;29836;52.286;9.576;2023-08-06T14:40:02;18.50;99.90
44170;DHT22;29836;52.286;9.576;2023-08-06T14:42:28;18.30;99.90
44170;DHT22;29836;52.286;9.576;2023-08-06T14:44:53;18.20;99.90
44170;DHT22;29836;52.286;9.576;2023-08-06T14:47:19;18.20;99.90
44170;DHT22;29836;52.286;9.576;2023-08-06T14:49:44;18.20;99.90
44170;DHT22;29836;52.286;9.576;2023-08-06T14:52:10;18.30;99.90
44170;DHT22;29836;52.286;9.576;2023-08-06T14:54:35;18.30;99.90
44170;DHT22;29836;52.286;9.576;2023-08-06T14:57:01;18.50;99.90
44170;DHT22;29836;52.286;9.576;2023-08-06T14:59:26;18.80;99.90
44170;DHT22;29836;52.286;9.576;2023-08-06T15:01:52;18.90;99.90
44170;DHT22;29836;52.286;9.576;2023-08-06T15:04:18;19.00;99.90
44170;DHT22;29836;52.286;9.576;2023-08-06T15:06:44;19.40;99.90
44170;DHT22;29836;52.286;9.576;2023-08-06T15:09:09;19.90;99.90
44170;DHT22;29836;52.286;9.576;2023-08-06T15:11:35;20.40;99.90
44170;DHT22;29836;52.286;9.576;2023-08-06T15:14:00;20.70;99.90
44170;DHT22;29836;52.286;9.576;2023-08-06T15:16:26;20.90;99.90
44170;DHT22;29836;52.286;9.576;2023-08-06T15:18:52;21.10;99.90
44170;DHT22;29836;52.286;9.576;2023-08-06T15:21:18;21.30;99.90
44170;DHT22;29836;52.286;9.576;2023-08-06T15:23:43;21.40;99.90
44170;DHT22;29836;52.286;9.576;2023-08-06T15:26:09;21.10;99.90
44170;DHT22;29836;52.286;9.576;2023-08-06T15:28:34;20.90;99.90
44170;DHT22;29836;52.286;9.576;2023-08-06T15:31:01;20.80;99.90
44170;DHT22;29836;52.286;9.576;2023-08-06T15:33:29;20.60;99.90
44170;DHT22;29836;52.286;9.576;2023-08-06T15:35:55;20.50;99.90
44170;DHT22;29836;52.286;9.576;2023-08-06T15:38:20;20.30;99.90
44170;DHT22;29836;52.286;9.576;2023-08-06T15:40:46;20.20;99.90
44170;DHT22;29836;52.286;9.576;2023-08-06T15:43:12;20.10;99.90